Weather History for Hazlehurst, GA

Change the Weather History Date:

Wednesday, January 30, 2013

  Actual Average Record
Temperature  
Mean Temperature 64 °F -  
Max Temperature 77 °F 58 °F 77 °F (2013)
Min Temperature 51 °F 43 °F 25 °F (2014)
Degree Days  
Heating Degree Days 1    
Growing Degree Days 14 (Base 50)    
Moisture  
Dew Point 62 °F    
Average Humidity 87    
Maximum Humidity 100    
Minimum Humidity 60    
Precipitation  
Precipitation 0.00 in - - ()
Sea Level Pressure  
Sea Level Pressure 29.87 in    
Wind  
Wind Speed 9 mph (SSW)    
Max Wind Speed 20 mph    
Max Gust Speed 34 mph    
Visibility 10 miles    
Events Rain    
Averages and records for this station are not official NWS values.
T = Trace of Precipitation, MM = Missing Value Source: NWS Daily Summary

Daily Weather History Graph

Daily Weather History Graph

Search for Another Location

Airport:

Trip Planner

Search our weather history database for the weather conditions in past years. The results will help you decide how hot, cold, wet, or windy it might be!

Date:

Astronomy

Jan. 30, 2013 Rise Set
Actual Time 7:25 AM EST 6:03 PM EST
Civil Twilight 6:59 AM EST 6:28 PM EST
Nautical Twilight 6:30 AM EST 6:58 PM EST
Astronomical Twilight 6:01 AM EST 7:27 PM EST
Moon 9:42 PM EST (1/30) 9:08 AM EST (1/30)
Length of Visible Light 11h 29m
Length of Day
10h 38m
Waning Gibbous, 88% of the Moon is Illuminated
Jan 30
Waning Gibbous
Feb 3
Last Quarter
Feb 10
New
Feb 17
First Quarter
Feb 25
Full

Hourly Weather History & Observations

Time (EST) Temp. Dew Point Humidity Pressure Visibility Wind Dir Wind Speed Gust Speed Precip Events Conditions
12:15 AM 63.7 °F 63.0 °F 97% 30.07 in 10.0 mi SSE 4.6 mph - N/A   Clear
12:35 AM 63.5 °F 63.1 °F 99% 30.06 in 10.0 mi SSE 5.8 mph - N/A   Clear
12:55 AM 63.3 °F 63.3 °F 100% 30.06 in 10.0 mi SSE 4.6 mph - N/A   Clear
1:15 AM 63.0 °F 63.3 °F 100% 30.05 in 10.0 mi South 5.8 mph - N/A   Clear
1:35 AM 63.0 °F 63.1 °F 100% 30.05 in 10.0 mi SSE 6.9 mph - N/A   Mostly Cloudy
1:55 AM - - N/A% 30.04 in 10.0 mi South 6.9 mph - N/A   Mostly Cloudy
2:15 AM 63.7 °F 63.7 °F 100% 30.03 in 10.0 mi South 6.9 mph - N/A   Mostly Cloudy
2:35 AM 63.5 °F 63.7 °F 100% 30.02 in 10.0 mi South 8.1 mph - N/A   Scattered Clouds
2:55 AM 63.5 °F 63.7 °F 100% 30.02 in 10.0 mi SSE 5.8 mph - N/A   Mostly Cloudy
3:15 AM 63.5 °F 63.7 °F 100% 30.01 in 10.0 mi SSE 8.1 mph - N/A   Scattered Clouds
3:35 AM 63.9 °F 63.9 °F 100% 30.01 in 10.0 mi South 5.8 mph - N/A   Mostly Cloudy
3:55 AM 64.4 °F 64.0 °F 99% 30.01 in 10.0 mi South 4.6 mph - N/A   Overcast
4:35 AM 64.0 °F 64.0 °F 100% 29.99 in 10.0 mi SSE 8.1 mph - N/A   Overcast
4:55 AM 63.7 °F 63.9 °F 100% 29.98 in 10.0 mi South 6.9 mph - N/A   Mostly Cloudy
5:15 AM 64.0 °F 64.0 °F 100% 29.97 in 10.0 mi South 4.6 mph - N/A   Overcast
5:35 AM 64.4 °F 64.4 °F 100% 29.96 in 10.0 mi SSE 9.2 mph - N/A   Overcast
5:55 AM 64.6 °F 64.8 °F 100% 29.96 in 10.0 mi South 11.5 mph - N/A   Overcast
6:15 AM 65.3 °F 64.9 °F 99% 29.96 in 10.0 mi South 8.1 mph - N/A   Overcast
6:35 AM 65.7 °F 65.3 °F 99% 29.96 in 10.0 mi South 11.5 mph 19.6 mph N/A   Overcast
7:15 AM 66.7 °F 65.7 °F 96% 29.96 in 10.0 mi South 10.4 mph 17.3 mph N/A   Overcast
7:35 AM 67.1 °F 65.7 °F 95% 29.95 in 10.0 mi South 10.4 mph 20.7 mph N/A   Overcast
7:55 AM 67.1 °F 65.5 °F 95% 29.95 in 10.0 mi South 12.7 mph 18.4 mph N/A   Overcast
8:15 AM 67.1 °F 65.5 °F 95% 29.95 in 10.0 mi South 9.2 mph 17.3 mph N/A   Overcast
8:35 AM 67.5 °F 65.3 °F 93% 29.93 in 10.0 mi South 12.7 mph 21.9 mph N/A   Overcast
8:55 AM 68.0 °F 65.1 °F 90% 29.93 in 10.0 mi South 9.2 mph 18.4 mph N/A   Overcast
9:15 AM 68.5 °F 64.8 °F 88% 29.94 in 10.0 mi SSW 13.8 mph 20.7 mph N/A   Overcast
9:35 AM 69.6 °F 64.6 °F 84% 29.94 in 10.0 mi South 9.2 mph 20.7 mph N/A   Overcast
9:55 AM 70.3 °F 64.2 °F 81% 29.94 in 10.0 mi South 17.3 mph 25.3 mph N/A   Mostly Cloudy
10:15 AM 71.8 °F 64.0 °F 77% 29.93 in 10.0 mi South 12.7 mph 19.6 mph N/A   Mostly Cloudy
10:35 AM 72.5 °F 63.7 °F 74% 29.93 in 10.0 mi South 16.1 mph 24.2 mph N/A   Overcast
10:55 AM 73.4 °F 63.3 °F 71% 29.91 in 10.0 mi South 15.0 mph 27.6 mph N/A   Overcast
11:15 AM 74.7 °F 63.1 °F 67% 29.91 in 10.0 mi South 16.1 mph 32.2 mph N/A   Overcast
11:35 AM 74.7 °F 62.6 °F 66% 29.89 in 10.0 mi SSW 18.4 mph 28.8 mph N/A   Overcast
11:55 AM 75.0 °F 62.4 °F 65% 29.88 in 10.0 mi SSW 11.5 mph 23.0 mph N/A   Mostly Cloudy
12:15 PM 76.3 °F 62.4 °F 62% 29.87 in 10.0 mi SSW 12.7 mph 20.7 mph N/A   Mostly Cloudy
12:35 PM 77.0 °F 62.4 °F 61% 29.86 in 10.0 mi SSW 19.6 mph 26.5 mph N/A   Mostly Cloudy
12:55 PM 77.4 °F 62.4 °F 60% 29.84 in 10.0 mi SSW 10.4 mph 21.9 mph N/A   Overcast
1:15 PM 77.2 °F 62.2 °F 60% 29.82 in 10.0 mi SSW 13.8 mph 26.5 mph N/A   Overcast
1:35 PM 76.8 °F 62.4 °F 61% 29.81 in 10.0 mi SSW 13.8 mph 23.0 mph N/A   Overcast
1:55 PM 75.7 °F 62.6 °F 64% 29.80 in 10.0 mi SSW 8.1 mph 24.2 mph N/A Rain Rain
2:15 PM 72.9 °F 63.9 °F 73% 29.79 in 10.0 mi SSW 11.5 mph 19.6 mph N/A   Light Drizzle
2:35 PM 74.1 °F 63.3 °F 69% 29.78 in 10.0 mi South 12.7 mph 24.2 mph N/A   Overcast
2:55 PM 73.0 °F 64.0 °F 73% 29.78 in 7.0 mi SSW 12.7 mph 24.2 mph N/A Rain Light Rain
3:15 PM 69.6 °F 65.5 °F 87% 29.77 in 10.0 mi South 8.1 mph - N/A   Light Drizzle
3:35 PM 69.6 °F 65.8 °F 88% 29.75 in 10.0 mi South 8.1 mph - N/A   Overcast
3:55 PM 71.1 °F 66.0 °F 84% 29.75 in 10.0 mi South 9.2 mph 17.3 mph N/A   Overcast
4:15 PM 72.1 °F 65.5 °F 79% 29.74 in 10.0 mi South 13.8 mph 20.7 mph N/A   Overcast
4:35 PM 72.5 °F 65.5 °F 79% 29.72 in 10.0 mi South 12.7 mph 19.6 mph N/A   Overcast
4:55 PM 73.0 °F 65.5 °F 77% 29.72 in 10.0 mi South 12.7 mph 25.3 mph N/A   Overcast
5:15 PM 73.4 °F 65.5 °F 76% 29.71 in 10.0 mi SSW 11.5 mph 24.2 mph N/A Rain Light Rain
5:35 PM 73.0 °F 65.5 °F 77% 29.70 in 10.0 mi SSW 8.1 mph 21.9 mph N/A Rain Light Rain
5:55 PM 72.5 °F 65.5 °F 79% 29.69 in 10.0 mi South 15.0 mph 25.3 mph N/A   Overcast
6:15 PM 72.0 °F 65.5 °F 80% 29.67 in 10.0 mi South 16.1 mph 24.2 mph N/A   Mostly Cloudy
6:35 PM 70.9 °F 65.7 °F 83% 29.66 in 10.0 mi South 12.7 mph 24.2 mph N/A   Clear
6:55 PM 70.9 °F 65.7 °F 83% 29.68 in 10.0 mi South 13.8 mph 21.9 mph N/A   Mostly Cloudy
7:15 PM 71.6 °F 65.7 °F 81% 29.69 in 10.0 mi SSW 9.2 mph 23.0 mph N/A   Overcast
7:35 PM 71.2 °F 66.0 °F 84% 29.69 in 10.0 mi SW 11.5 mph 20.7 mph N/A Rain Light Rain
7:55 PM 70.2 °F 66.6 °F 88% 29.69 in 10.0 mi SSW 11.5 mph 20.7 mph N/A Rain Rain
8:15 PM 66.0 °F 63.9 °F 93% 29.76 in 2.0 mi West 10.4 mph 34.5 mph N/A Rain Heavy Rain
8:35 PM 55.4 °F 55.4 °F 100% 29.79 in 4.0 mi West 10.4 mph 25.3 mph N/A Rain Rain
8:55 PM 54.0 °F 54.0 °F 100% 29.79 in 10.0 mi West 10.4 mph 18.4 mph N/A Rain Light Rain
9:15 PM - - N/A% 29.80 in 5.0 mi WSW 8.1 mph 17.3 mph N/A Rain Rain
9:35 PM 51.4 °F 51.6 °F 100% 29.80 in 10.0 mi WSW 8.1 mph - N/A   Overcast
9:55 PM 51.1 °F 51.1 °F 100% 29.81 in 10.0 mi SW 6.9 mph - N/A   Overcast
10:15 PM 51.1 °F 51.1 °F 100% 29.81 in 10.0 mi WSW 6.9 mph - N/A   Overcast
10:35 PM 51.3 °F 50.7 °F 98% 29.83 in 10.0 mi WSW 6.9 mph - N/A   Overcast
10:55 PM 51.6 °F 50.2 °F 95% 29.83 in 10.0 mi WSW 5.8 mph - N/A   Overcast
11:15 PM 51.4 °F 49.6 °F 94% 29.83 in 10.0 mi WSW 5.8 mph - N/A   Overcast
11:35 PM 51.3 °F 48.9 °F 92% 29.83 in 10.0 mi WSW 8.1 mph - N/A   Overcast
11:55 PM 51.4 °F 48.7 °F 90% 29.84 in 10.0 mi WSW 6.9 mph - N/A   Overcast